sensor_id;sensor_type;location;lat;lon;timestamp;pressure;altitude;pressure_sealevel;temperature;humidity
48527;BME280;34317;51.660;5.824;2023-01-27T00:01:08;102389.25;;;8.54;57.31
48527;BME280;34317;51.660;5.824;2023-01-27T00:03:36;102378.72;;;8.51;57.34
48527;BME280;34317;51.660;5.824;2023-01-27T00:06:03;102378.75;;;8.48;57.43
48527;BME280;34317;51.660;5.824;2023-01-27T00:08:32;102379.66;;;8.44;57.40
48527;BME280;34317;51.660;5.824;2023-01-27T00:10:59;102374.38;;;8.44;57.80
48527;BME280;34317;51.660;5.824;2023-01-27T00:13:45;102382.31;;;8.41;57.53
48527;BME280;34317;51.660;5.824;2023-01-27T00:16:12;102375.28;;;8.39;57.73
48527;BME280;34317;51.660;5.824;2023-01-27T00:18:39;102375.28;;;8.39;57.59
48527;BME280;34317;51.660;5.824;2023-01-27T00:21:06;102378.84;;;8.38;57.71
48527;BME280;34317;51.660;5.824;2023-01-27T00:23:52;102384.13;;;8.35;57.25
48527;BME280;34317;51.660;5.824;2023-01-27T00:26:38;102384.16;;;8.32;57.73
48527;BME280;34317;51.660;5.824;2023-01-27T00:29:05;102382.44;;;8.31;57.91
48527;BME280;34317;51.660;5.824;2023-01-27T00:31:33;102381.56;;;8.29;57.66
48527;BME280;34317;51.660;5.824;2023-01-27T00:34:18;102383.34;;;8.27;57.61
48527;BME280;34317;51.660;5.824;2023-01-27T00:36:45;102382.50;;;8.25;57.63
48527;BME280;34317;51.660;5.824;2023-01-27T00:39:12;102379.88;;;8.24;57.92
48527;BME280;34317;51.660;5.824;2023-01-27T00:41:42;102381.66;;;8.22;57.91
48527;BME280;34317;51.660;5.824;2023-01-27T00:44:09;102388.69;;;8.21;57.88
48527;BME280;34317;51.660;5.824;2023-01-27T00:46:40;102381.66;;;8.20;57.89
48527;BME280;34317;51.660;5.824;2023-01-27T00:49:09;102384.31;;;8.20;57.99
48527;BME280;34317;51.660;5.824;2023-01-27T00:51:36;102384.31;;;8.20;57.87
48527;BME280;34317;51.660;5.824;2023-01-27T00:54:04;102389.59;;;8.20;58.35
48527;BME280;34317;51.660;5.824;2023-01-27T00:56:32;102384.31;;;8.20;57.87
48527;BME280;34317;51.660;5.824;2023-01-27T00:59:00;102385.22;;;8.17;57.87
48527;BME280;34317;51.660;5.824;2023-01-27T01:01:27;102393.16;;;8.16;58.18
48527;BME280;34317;51.660;5.824;2023-01-27T01:03:55;102394.03;;;8.15;57.90
48527;BME280;34317;51.660;5.824;2023-01-27T01:06:25;102391.38;;;8.15;57.80
48527;BME280;34317;51.660;5.824;2023-01-27T01:08:55;102395.81;;;8.13;57.76
48527;BME280;34317;51.660;5.824;2023-01-27T01:11:23;102392.31;;;8.12;58.06
48527;BME280;34317;51.660;5.824;2023-01-27T01:13:50;102392.31;;;8.12;57.88
48527;BME280;34317;51.660;5.824;2023-01-27T01:16:21;102395.81;;;8.10;57.79
48527;BME280;34317;51.660;5.824;2023-01-27T01:18:49;102402.00;;;8.09;57.99
48527;BME280;34317;51.660;5.824;2023-01-27T01:21:16;102404.66;;;8.06;57.82
48527;BME280;34317;51.660;5.824;2023-01-27T01:23:44;102406.44;;;8.05;57.73
48527;BME280;34317;51.660;5.824;2023-01-27T01:26:13;102408.22;;;8.05;58.04
48527;BME280;34317;51.660;5.824;2023-01-27T01:28:42;102405.56;;;8.05;58.17
48527;BME280;34317;51.660;5.824;2023-01-27T01:31:15;102405.56;;;8.05;58.20
48527;BME280;34317;51.660;5.824;2023-01-27T01:33:43;102407.31;;;8.06;58.01
48527;BME280;34317;51.660;5.824;2023-01-27T01:36:13;102408.19;;;8.06;58.06
48527;BME280;34317;51.660;5.824;2023-01-27T01:38:41;102412.56;;;8.06;57.90
48527;BME280;34317;51.660;5.824;2023-01-27T01:41:11;102409.94;;;8.06;58.11
48527;BME280;34317;51.660;5.824;2023-01-27T01:43:39;102417.84;;;8.06;57.93
48527;BME280;34317;51.660;5.824;2023-01-27T01:46:08;102414.34;;;8.04;57.81
48527;BME280;34317;51.660;5.824;2023-01-27T01:48:44;102416.13;;;8.05;57.74
48527;BME280;34317;51.660;5.824;2023-01-27T01:51:20;102420.53;;;8.03;57.77
48527;BME280;34317;51.660;5.824;2023-01-27T01:56:51;102424.97;;;8.01;57.53
48527;BME280;34317;51.660;5.824;2023-01-27T01:59:22;102424.97;;;8.01;57.74
48527;BME280;34317;51.660;5.824;2023-01-27T02:01:55;102422.34;;;7.99;57.93
48527;BME280;34317;51.660;5.824;2023-01-27T02:04:26;102424.97;;;8.01;57.98
48527;BME280;34317;51.660;5.824;2023-01-27T02:07:06;102426.72;;;7.98;57.81
48527;BME280;34317;51.660;5.824;2023-01-27T02:09:35;102421.44;;;7.98;57.57
48527;BME280;34317;51.660;5.824;2023-01-27T02:12:04;102426.72;;;7.98;57.70
48527;BME280;34317;51.660;5.824;2023-01-27T02:14:32;102429.38;;;7.97;57.49
48527;BME280;34317;51.660;5.824;2023-01-27T02:16:59;102433.75;;;7.96;57.51
48527;BME280;34317;51.660;5.824;2023-01-27T02:22:20;102432.03;;;7.92;57.75
48527;BME280;34317;51.660;5.824;2023-01-27T02:24:55;102437.31;;;7.92;57.84
48527;BME280;34317;51.660;5.824;2023-01-27T02:27:24;102432.94;;;7.91;57.98
48527;BME280;34317;51.660;5.824;2023-01-27T02:29:52;102438.19;;;7.93;57.93
48527;BME280;34317;51.660;5.824;2023-01-27T02:32:26;102442.59;;;7.92;57.82
48527;BME280;34317;51.660;5.824;2023-01-27T02:34:55;102440.88;;;7.91;57.75
48527;BME280;34317;51.660;5.824;2023-01-27T02:37:23;102449.66;;;7.90;57.44
48527;BME280;34317;51.660;5.824;2023-01-27T02:39:52;102439.97;;;7.91;57.77
48527;BME280;34317;51.660;5.824;2023-01-27T02:42:22;102441.72;;;7.92;57.61
48527;BME280;34317;51.660;5.824;2023-01-27T02:44:49;102437.31;;;7.92;57.79
48527;BME280;34317;51.660;5.824;2023-01-27T02:47:17;102439.09;;;7.93;58.04
48527;BME280;34317;51.660;5.824;2023-01-27T02:49:44;102438.19;;;7.93;57.70
48527;BME280;34317;51.660;5.824;2023-01-27T02:52:11;102438.22;;;7.91;58.00
48527;BME280;34317;51.660;5.824;2023-01-27T02:54:39;102434.69;;;7.91;57.96
48527;BME280;34317;51.660;5.824;2023-01-27T02:57:06;102436.47;;;7.92;57.96
48527;BME280;34317;51.660;5.824;2023-01-27T02:59:43;102436.47;;;7.92;58.07
48527;BME280;34317;51.660;5.824;2023-01-27T03:02:10;102437.31;;;7.92;57.98
48527;BME280;34317;51.660;5.824;2023-01-27T03:04:48;102442.59;;;7.92;57.90
48527;BME280;34317;51.660;5.824;2023-01-27T03:07:16;102439.97;;;7.92;57.91
48527;BME280;34317;51.660;5.824;2023-01-27T03:09:43;102437.31;;;7.92;58.08
48527;BME280;34317;51.660;5.824;2023-01-27T03:12:10;102439.97;;;7.92;58.03
48527;BME280;34317;51.660;5.824;2023-01-27T03:14:47;102441.72;;;7.92;58.32
48527;BME280;34317;51.660;5.824;2023-01-27T03:17:36;102447.00;;;7.90;58.28
48527;BME280;34317;51.660;5.824;2023-01-27T03:20:22;102457.56;;;7.89;58.09
48527;BME280;34317;51.660;5.824;2023-01-27T03:22:49;102456.72;;;7.88;58.32
48527;BME280;34317;51.660;5.824;2023-01-27T03:25:19;102460.22;;;7.87;58.48
48527;BME280;34317;51.660;5.824;2023-01-27T03:27:46;102456.72;;;7.85;58.13
48527;BME280;34317;51.660;5.824;2023-01-27T03:30:21;102456.75;;;7.82;58.01
48527;BME280;34317;51.660;5.824;2023-01-27T03:33:00;102456.75;;;7.82;58.27
48527;BME280;34317;51.660;5.824;2023-01-27T03:35:56;102458.53;;;7.80;58.50
48527;BME280;34317;51.660;5.824;2023-01-27T03:38:48;102462.06;;;7.79;58.22
48527;BME280;34317;51.660;5.824;2023-01-27T03:41:34;102471.75;;;7.77;58.64
48527;BME280;34317;51.660;5.824;2023-01-27T03:44:21;102472.63;;;7.76;58.61
48527;BME280;34317;51.660;5.824;2023-01-27T03:47:07;102473.50;;;7.75;58.53
48527;BME280;34317;51.660;5.824;2023-01-27T03:49:34;102481.44;;;7.75;58.31
48527;BME280;34317;51.660;5.824;2023-01-27T03:52:01;102495.47;;;7.74;58.65
48527;BME280;34317;51.660;5.824;2023-01-27T03:54:28;102488.47;;;7.73;58.48
48527;BME280;34317;51.660;5.824;2023-01-27T03:56:55;102489.34;;;7.73;58.39
48527;BME280;34317;51.660;5.824;2023-01-27T03:59:22;102492.88;;;7.72;58.33
48527;BME280;34317;51.660;5.824;2023-01-27T04:01:49;102486.72;;;7.72;58.61
48527;BME280;34317;51.660;5.824;2023-01-27T04:04:16;102484.97;;;7.71;58.82
48527;BME280;34317;51.660;5.824;2023-01-27T04:07:02;102496.41;;;7.70;58.24
48527;BME280;34317;51.660;5.824;2023-01-27T04:09:31;102491.13;;;7.70;58.31
48527;BME280;34317;51.660;5.824;2023-01-27T04:12:02;102488.53;;;7.67;58.47
48527;BME280;34317;51.660;5.824;2023-01-27T04:14:37;102495.53;;;7.65;58.48
48527;BME280;34317;51.660;5.824;2023-01-27T04:17:12;102493.81;;;7.64;58.42
48527;BME280;34317;51.660;5.824;2023-01-27T04:19:40;102490.25;;;7.65;58.41
48527;BME280;34317;51.660;5.824;2023-01-27T04:22:09;102488.53;;;7.64;58.71
48527;BME280;34317;51.660;5.824;2023-01-27T04:24:37;102488.53;;;7.64;58.95
48527;BME280;34317;51.660;5.824;2023-01-27T04:27:06;102500.84;;;7.62;58.84
48527;BME280;34317;51.660;5.824;2023-01-27T04:29:37;102492.06;;;7.59;58.97
48527;BME280;34317;51.660;5.824;2023-01-27T04:32:08;102499.09;;;7.60;58.87
48527;BME280;34317;51.660;5.824;2023-01-27T04:34:36;102493.81;;;7.60;58.86
48527;BME280;34317;51.660;5.824;2023-01-27T04:37:04;102492.94;;;7.60;58.77
48527;BME280;34317;51.660;5.824;2023-01-27T04:39:33;102491.19;;;7.60;58.91
48527;BME280;34317;51.660;5.824;2023-01-27T04:42:00;102497.34;;;7.59;58.87
48527;BME280;34317;51.660;5.824;2023-01-27T04:44:28;102491.22;;;7.57;58.75
48527;BME280;34317;51.660;5.824;2023-01-27T04:46:56;102495.59;;;7.58;58.73
48527;BME280;34317;51.660;5.824;2023-01-27T04:49:23;102498.22;;;7.58;59.06
48527;BME280;34317;51.660;5.824;2023-01-27T04:51:53;102499.13;;;7.57;58.94
48527;BME280;34317;51.660;5.824;2023-01-27T04:54:20;102503.50;;;7.58;59.10
48527;BME280;34317;51.660;5.824;2023-01-27T04:56:56;102504.41;;;7.57;59.24
48527;BME280;34317;51.660;5.824;2023-01-27T04:59:24;102504.41;;;7.57;59.01
48527;BME280;34317;51.660;5.824;2023-01-27T05:01:51;102507.91;;;7.56;58.94
48527;BME280;34317;51.660;5.824;2023-01-27T05:04:18;102514.09;;;7.55;59.36
48527;BME280;34317;51.660;5.824;2023-01-27T05:06:46;102517.59;;;7.56;59.14
48527;BME280;34317;51.660;5.824;2023-01-27T05:09:13;102522.00;;;7.55;58.98
48527;BME280;34317;51.660;5.824;2023-01-27T05:11:40;102514.94;;;7.54;59.23
48527;BME280;34317;51.660;5.824;2023-01-27T05:14:07;102523.72;;;7.53;59.49
48527;BME280;34317;51.660;5.824;2023-01-27T05:16:34;102522.84;;;7.54;59.20
48527;BME280;34317;51.660;5.824;2023-01-27T05:19:01;102520.22;;;7.54;59.20
48527;BME280;34317;51.660;5.824;2023-01-27T05:21:28;102516.72;;;7.55;59.31
48527;BME280;34317;51.660;5.824;2023-01-27T05:23:56;102510.53;;;7.55;59.16
48527;BME280;34317;51.660;5.824;2023-01-27T05:26:26;102514.94;;;7.54;59.41
48527;BME280;34317;51.660;5.824;2023-01-27T05:28:55;102518.47;;;7.53;59.27
48527;BME280;34317;51.660;5.824;2023-01-27T05:31:26;102519.34;;;7.52;59.47
48527;BME280;34317;51.660;5.824;2023-01-27T05:33:54;102516.72;;;7.52;59.17
48527;BME280;34317;51.660;5.824;2023-01-27T05:36:23;102518.47;;;7.53;59.46
48527;BME280;34317;51.660;5.824;2023-01-27T05:38:51;102515.81;;;7.55;59.54
48527;BME280;34317;51.660;5.824;2023-01-27T05:41:19;102518.44;;;7.56;59.06
48527;BME280;34317;51.660;5.824;2023-01-27T05:43:51;102520.22;;;7.57;59.19
48527;BME280;34317;51.660;5.824;2023-01-27T05:46:21;102521.94;;;7.58;59.50
48527;BME280;34317;51.660;5.824;2023-01-27T05:48:51;102530.72;;;7.60;59.14
48527;BME280;34317;51.660;5.824;2023-01-27T05:51:20;102525.47;;;7.60;59.14
48527;BME280;34317;51.660;5.824;2023-01-27T05:53:48;102528.97;;;7.63;59.06
48527;BME280;34317;51.660;5.824;2023-01-27T05:56:17;102523.69;;;7.66;59.34
48527;BME280;34317;51.660;5.824;2023-01-27T05:58:45;102530.72;;;7.67;59.25
48527;BME280;34317;51.660;5.824;2023-01-27T06:01:17;102525.44;;;7.67;59.12
48527;BME280;34317;51.660;5.824;2023-01-27T06:03:46;102528.94;;;7.67;59.10
48527;BME280;34317;51.660;5.824;2023-01-27T06:06:16;102529.81;;;7.66;59.04
48527;BME280;34317;51.660;5.824;2023-01-27T06:08:44;102534.22;;;7.66;59.23
48527;BME280;34317;51.660;5.824;2023-01-27T06:11:11;102528.94;;;7.66;59.34
48527;BME280;34317;51.660;5.824;2023-01-27T06:13:39;102539.50;;;7.69;59.45
48527;BME280;34317;51.660;5.824;2023-01-27T06:16:11;102543.00;;;7.68;58.95
48527;BME280;34317;51.660;5.824;2023-01-27T06:18:39;102533.31;;;7.68;59.17
48527;BME280;34317;51.660;5.824;2023-01-27T06:21:08;102541.22;;;7.70;59.03
48527;BME280;34317;51.660;5.824;2023-01-27T06:23:37;102541.22;;;7.70;59.18
48527;BME280;34317;51.660;5.824;2023-01-27T06:26:12;102541.22;;;7.70;59.45
48527;BME280;34317;51.660;5.824;2023-01-27T06:28:40;102543.00;;;7.71;59.16
48527;BME280;34317;51.660;5.824;2023-01-27T06:31:09;102537.72;;;7.71;58.98
48527;BME280;34317;51.660;5.824;2023-01-27T06:33:37;102545.63;;;7.71;58.85
48527;BME280;34317;51.660;5.824;2023-01-27T06:36:08;102546.50;;;7.70;59.18
48527;BME280;34317;51.660;5.824;2023-01-27T06:38:36;102551.78;;;7.70;59.00
48527;BME280;34317;51.660;5.824;2023-01-27T06:41:04;102557.06;;;7.70;59.23
48527;BME280;34317;51.660;5.824;2023-01-27T06:43:31;102556.19;;;7.69;59.29
48527;BME280;34317;51.660;5.824;2023-01-27T06:45:58;102557.91;;;7.70;58.95
48527;BME280;34317;51.660;5.824;2023-01-27T06:48:26;102555.28;;;7.72;58.98
48527;BME280;34317;51.660;5.824;2023-01-27T06:50:54;102560.56;;;7.72;59.17
48527;BME280;34317;51.660;5.824;2023-01-27T06:53:22;102565.81;;;7.75;59.11
48527;BME280;34317;51.660;5.824;2023-01-27T06:55:57;102569.31;;;7.77;59.15
48527;BME280;34317;51.660;5.824;2023-01-27T06:58:25;102564.06;;;7.77;58.85
48527;BME280;34317;51.660;5.824;2023-01-27T07:00:53;102557.00;;;7.76;58.73
48527;BME280;34317;51.660;5.824;2023-01-27T07:03:21;102564.06;;;7.77;58.93
48527;BME280;34317;51.660;5.824;2023-01-27T07:05:48;102556.13;;;7.77;58.91
48527;BME280;34317;51.660;5.824;2023-01-27T07:08:16;102572.81;;;7.79;58.89
48527;BME280;34317;51.660;5.824;2023-01-27T07:10:43;102572.81;;;7.79;58.73
48527;BME280;34317;51.660;5.824;2023-01-27T07:13:12;102569.31;;;7.80;58.90
48527;BME280;34317;51.660;5.824;2023-01-27T07:15:39;102578.09;;;7.82;58.82
48527;BME280;34317;51.660;5.824;2023-01-27T07:18:07;102571.91;;;7.83;58.63
48527;BME280;34317;51.660;5.824;2023-01-27T07:20:35;102575.41;;;7.85;58.89
48527;BME280;34317;51.660;5.824;2023-01-27T07:23:03;102577.19;;;7.86;58.70
48527;BME280;34317;51.660;5.824;2023-01-27T07:25:33;102580.69;;;7.85;58.57
48527;BME280;34317;51.660;5.824;2023-01-27T07:28:01;102580.69;;;7.87;58.56
48527;BME280;34317;51.660;5.824;2023-01-27T07:30:29;102592.13;;;7.87;58.68
48527;BME280;34317;51.660;5.824;2023-01-27T07:33:10;102589.47;;;7.87;58.53
48527;BME280;34317;51.660;5.824;2023-01-27T07:35:38;102590.38;;;7.89;58.29
48527;BME280;34317;51.660;5.824;2023-01-27T07:38:06;102600.94;;;7.89;58.87
48527;BME280;34317;51.660;5.824;2023-01-27T07:40:34;102599.16;;;7.88;58.40
48527;BME280;34317;51.660;5.824;2023-01-27T07:43:01;102613.22;;;7.87;58.48
48527;BME280;34317;51.660;5.824;2023-01-27T07:45:29;102609.72;;;7.85;58.41
48527;BME280;34317;51.660;5.824;2023-01-27T07:48:06;102606.22;;;7.86;58.46
48527;BME280;34317;51.660;5.824;2023-01-27T07:50:35;102616.75;;;7.86;58.72
48527;BME280;34317;51.660;5.824;2023-01-27T07:53:03;102604.44;;;7.85;58.61
48527;BME280;34317;51.660;5.824;2023-01-27T07:55:31;102617.63;;;7.87;58.60
48527;BME280;34317;51.660;5.824;2023-01-27T07:57:58;102618.50;;;7.87;58.56
48527;BME280;34317;51.660;5.824;2023-01-27T08:00:26;102613.22;;;7.87;58.58
48527;BME280;34317;51.660;5.824;2023-01-27T08:02:55;102622.03;;;7.86;58.35
48527;BME280;34317;51.660;5.824;2023-01-27T08:05:22;102618.53;;;7.84;58.13
48527;BME280;34317;51.660;5.824;2023-01-27T08:07:51;102616.75;;;7.83;58.57
48527;BME280;34317;51.660;5.824;2023-01-27T08:10:19;102613.25;;;7.83;58.51
48527;BME280;34317;51.660;5.824;2023-01-27T08:12:47;102617.66;;;7.82;58.27
48527;BME280;34317;51.660;5.824;2023-01-27T08:15:14;102615.03;;;7.82;58.17
48527;BME280;34317;51.660;5.824;2023-01-27T08:17:54;102620.31;;;7.82;58.41
48527;BME280;34317;51.660;5.824;2023-01-27T08:20:24;102630.84;;;7.82;58.49
48527;BME280;34317;51.660;5.824;2023-01-27T08:22:51;102625.56;;;7.82;58.40
48527;BME280;34317;51.660;5.824;2023-01-27T08:25:19;102625.56;;;7.82;58.49
48527;BME280;34317;51.660;5.824;2023-01-27T08:27:51;102630.84;;;7.82;58.55
48527;BME280;34317;51.660;5.824;2023-01-27T08:30:18;102625.56;;;7.82;58.16
48527;BME280;34317;51.660;5.824;2023-01-27T08:32:46;102629.09;;;7.81;58.45
48527;BME280;34317;51.660;5.824;2023-01-27T08:35:14;102622.06;;;7.80;58.13
48527;BME280;34317;51.660;5.824;2023-01-27T08:37:41;102625.56;;;7.82;57.89
48527;BME280;34317;51.660;5.824;2023-01-27T08:40:08;102629.09;;;7.81;58.03
48527;BME280;34317;51.660;5.824;2023-01-27T08:42:36;102630.84;;;7.82;58.25
48527;BME280;34317;51.660;5.824;2023-01-27T08:45:03;102632.59;;;7.83;58.23
48527;BME280;34317;51.660;5.824;2023-01-27T08:47:31;102633.50;;;7.82;58.17
48527;BME280;34317;51.660;5.824;2023-01-27T08:49:58;102641.38;;;7.85;58.22
48527;BME280;34317;51.660;5.824;2023-01-27T08:52:25;102646.66;;;7.85;58.14
48527;BME280;34317;51.660;5.824;2023-01-27T08:54:53;102651.91;;;7.85;58.17
48527;BME280;34317;51.660;5.824;2023-01-27T08:57:20;102654.56;;;7.87;58.17
48527;BME280;34317;51.660;5.824;2023-01-27T08:59:47;102660.69;;;7.87;58.56
48527;BME280;34317;51.660;5.824;2023-01-27T09:02:14;102653.69;;;7.86;58.27
48527;BME280;34317;51.660;5.824;2023-01-27T09:04:41;102657.19;;;7.88;58.14
48527;BME280;34317;51.660;5.824;2023-01-27T09:07:11;102650.16;;;7.87;57.84
48527;BME280;34317;51.660;5.824;2023-01-27T09:09:38;102665.97;;;7.87;58.16
48527;BME280;34317;51.660;5.824;2023-01-27T09:12:05;102659.84;;;7.87;58.01
48527;BME280;34317;51.660;5.824;2023-01-27T09:14:32;102660.69;;;7.87;57.88
48527;BME280;34317;51.660;5.824;2023-01-27T09:16:59;102667.75;;;7.85;57.75
48527;BME280;34317;51.660;5.824;2023-01-27T09:19:26;102669.53;;;7.86;57.96
48527;BME280;34317;51.660;5.824;2023-01-27T09:21:54;102672.16;;;7.88;58.19
48527;BME280;34317;51.660;5.824;2023-01-27T09:24:21;102667.75;;;7.88;57.83
48527;BME280;34317;51.660;5.824;2023-01-27T09:26:49;102669.50;;;7.89;57.93
48527;BME280;34317;51.660;5.824;2023-01-27T09:29:16;102674.75;;;7.92;57.70
48527;BME280;34317;51.660;5.824;2023-01-27T09:31:43;102676.53;;;7.93;58.17
48527;BME280;34317;51.660;5.824;2023-01-27T09:34:10;102674.75;;;7.95;57.75
48527;BME280;34317;51.660;5.824;2023-01-27T09:36:43;102674.75;;;7.95;57.82
48527;BME280;34317;51.660;5.824;2023-01-27T09:39:14;102688.81;;;7.97;58.11
48527;BME280;34317;51.660;5.824;2023-01-27T09:41:59;102680.00;;;7.98;57.69
48527;BME280;34317;51.660;5.824;2023-01-27T09:47:32;102683.53;;;8.01;57.98
48527;BME280;34317;51.660;5.824;2023-01-27T10:01:08;102694.06;;;8.04;57.67
48527;BME280;34317;51.660;5.824;2023-01-27T10:12:29;102686.97;;;8.15;58.02
48527;BME280;34317;51.660;5.824;2023-01-27T10:15:19;102701.03;;;8.20;58.17
48527;BME280;34317;51.660;5.824;2023-01-27T10:26:27;102698.38;;;8.22;57.88
48527;BME280;34317;51.660;5.824;2023-01-27T10:29:04;102696.63;;;8.21;57.52
48527;BME280;34317;51.660;5.824;2023-01-27T10:34:36;102692.19;;;8.21;57.84
48527;BME280;34317;51.660;5.824;2023-01-27T10:37:28;102690.47;;;8.20;57.88
48527;BME280;34317;51.660;5.824;2023-01-27T10:40:04;102686.97;;;8.19;57.51
48527;BME280;34317;51.660;5.824;2023-01-27T10:45:43;102667.59;;;8.19;57.67
48527;BME280;34317;51.660;5.824;2023-01-27T10:50:53;102667.56;;;8.25;57.80
48527;BME280;34317;51.660;5.824;2023-01-27T10:53:43;102663.16;;;8.29;57.75
48527;BME280;34317;51.660;5.824;2023-01-27T10:59:04;102674.53;;;8.35;57.92
48527;BME280;34317;51.660;5.824;2023-01-27T11:01:45;102669.25;;;8.40;57.75
48527;BME280;34317;51.660;5.824;2023-01-27T11:04:17;102666.59;;;8.43;57.57
48527;BME280;34317;51.660;5.824;2023-01-27T11:06:48;102671.00;;;8.43;57.49
48527;BME280;34317;51.660;5.824;2023-01-27T11:09:40;102671.00;;;8.46;57.85
48527;BME280;34317;51.660;5.824;2023-01-27T11:12:19;102670.09;;;8.48;57.95
48527;BME280;34317;51.660;5.824;2023-01-27T11:14:51;102667.44;;;8.50;57.41
48527;BME280;34317;51.660;5.824;2023-01-27T11:17:21;102670.94;;;8.52;57.70
48527;BME280;34317;51.660;5.824;2023-01-27T11:22:33;102672.66;;;8.59;57.48
48527;BME280;34317;51.660;5.824;2023-01-27T11:25:03;102668.25;;;8.58;57.29
48527;BME280;34317;51.660;5.824;2023-01-27T11:28:03;102670.91;;;8.55;57.02
48527;BME280;34317;51.660;5.824;2023-01-27T11:30:37;102663.03;;;8.52;57.18
48527;BME280;34317;51.660;5.824;2023-01-27T11:33:24;102671.81;;;8.52;57.38
48527;BME280;34317;51.660;5.824;2023-01-27T11:35:54;102667.38;;;8.56;57.33
48527;BME280;34317;51.660;5.824;2023-01-27T11:38:22;102662.09;;;8.59;57.41
48527;BME280;34317;51.660;5.824;2023-01-27T11:40:50;102666.47;;;8.62;57.53
48527;BME280;34317;51.660;5.824;2023-01-27T11:43:23;102662.06;;;8.62;57.31
48527;BME280;34317;51.660;5.824;2023-01-27T11:46:00;102662.91;;;8.64;57.38
48527;BME280;34317;51.660;5.824;2023-01-27T11:48:53;102662.03;;;8.65;57.18
48527;BME280;34317;51.660;5.824;2023-01-27T11:51:26;102658.50;;;8.66;57.28
48527;BME280;34317;51.660;5.824;2023-01-27T11:54:18;102656.75;;;8.67;56.93
48527;BME280;34317;51.660;5.824;2023-01-27T11:56:47;102654.97;;;8.67;57.09
48527;BME280;34317;51.660;5.824;2023-01-27T11:59:28;102665.53;;;8.70;57.00
48527;BME280;34317;51.660;5.824;2023-01-27T12:02:17;102655.78;;;8.75;57.45
48527;BME280;34317;51.660;5.824;2023-01-27T12:05:05;102655.78;;;8.75;57.14
48527;BME280;34317;51.660;5.824;2023-01-27T12:07:41;102651.38;;;8.77;57.21
48527;BME280;34317;51.660;5.824;2023-01-27T12:12:50;102651.34;;;8.84;57.00
48527;BME280;34317;51.660;5.824;2023-01-27T12:15:17;102646.06;;;8.84;56.94
48527;BME280;34317;51.660;5.824;2023-01-27T12:17:49;102640.72;;;8.87;57.04
48527;BME280;34317;51.660;5.824;2023-01-27T12:20:25;102642.47;;;8.89;56.73
48527;BME280;34317;51.660;5.824;2023-01-27T12:22:59;102640.69;;;8.90;56.51
48527;BME280;34317;51.660;5.824;2023-01-27T12:25:30;102634.56;;;8.88;56.67
48527;BME280;34317;51.660;5.824;2023-01-27T12:28:02;102637.19;;;8.88;56.38
48527;BME280;34317;51.660;5.824;2023-01-27T12:30:33;102637.19;;;8.88;56.44
48527;BME280;34317;51.660;5.824;2023-01-27T12:33:11;102633.69;;;8.86;56.50
48527;BME280;34317;51.660;5.824;2023-01-27T12:35:47;102637.22;;;8.85;56.57
48527;BME280;34317;51.660;5.824;2023-01-27T12:38:23;102628.44;;;8.83;56.55
48527;BME280;34317;51.660;5.824;2023-01-27T12:41:05;102625.78;;;8.81;56.29
48527;BME280;34317;51.660;5.824;2023-01-27T12:43:52;102624.00;;;8.83;56.80
48527;BME280;34317;51.660;5.824;2023-01-27T12:46:25;102628.41;;;8.86;56.55
48527;BME280;34317;51.660;5.824;2023-01-27T12:49:09;102624.00;;;8.86;56.39
48527;BME280;34317;51.660;5.824;2023-01-27T12:51:43;102624.00;;;8.85;56.64
48527;BME280;34317;51.660;5.824;2023-01-27T12:54:24;102623.13;;;8.86;56.65
48527;BME280;34317;51.660;5.824;2023-01-27T12:57:01;102613.41;;;8.88;56.66
48527;BME280;34317;51.660;5.824;2023-01-27T12:59:29;102617.78;;;8.89;56.59
48527;BME280;34317;51.660;5.824;2023-01-27T13:04:29;102610.78;;;8.89;56.66
48527;BME280;34317;51.660;5.824;2023-01-27T13:07:05;102614.28;;;8.90;56.41
48527;BME280;34317;51.660;5.824;2023-01-27T13:09:50;102619.56;;;8.91;56.48
48527;BME280;34317;51.660;5.824;2023-01-27T13:12:24;102618.66;;;8.91;56.74
48527;BME280;34317;51.660;5.824;2023-01-27T13:15:20;102616.00;;;8.91;56.41
48527;BME280;34317;51.660;5.824;2023-01-27T13:17:48;102614.28;;;8.90;56.69
48527;BME280;34317;51.660;5.824;2023-01-27T13:20:29;102619.56;;;8.90;56.50
48527;BME280;34317;51.660;5.824;2023-01-27T13:23:00;102617.78;;;8.89;56.57
48527;BME280;34317;51.660;5.824;2023-01-27T13:28:30;102616.06;;;8.88;56.61
48527;BME280;34317;51.660;5.824;2023-01-27T13:44:58;102621.28;;;8.91;56.43
48527;BME280;34317;51.660;5.824;2023-01-27T13:47:46;102623.06;;;8.92;56.66
48527;BME280;34317;51.660;5.824;2023-01-27T13:50:22;102626.56;;;8.94;56.58
48527;BME280;34317;51.660;5.824;2023-01-27T13:52:53;102623.91;;;8.94;56.37
48527;BME280;34317;51.660;5.824;2023-01-27T13:55:41;102630.06;;;8.96;56.25
48527;BME280;34317;51.660;5.824;2023-01-27T14:01:20;102626.56;;;8.94;56.61
48527;BME280;34317;51.660;5.824;2023-01-27T14:11:51;102626.56;;;8.94;56.19
48527;BME280;34317;51.660;5.824;2023-01-27T14:14:40;102638.91;;;8.95;56.48
48527;BME280;34317;51.660;5.824;2023-01-27T14:20:32;102640.63;;;8.96;56.13
48527;BME280;34317;51.660;5.824;2023-01-27T14:23:28;102629.19;;;8.95;56.07
48527;BME280;34317;51.660;5.824;2023-01-27T14:31:23;102650.34;;;8.94;56.13
48527;BME280;34317;51.660;5.824;2023-01-27T14:34:02;102649.50;;;8.92;55.93
48527;BME280;34317;51.660;5.824;2023-01-27T14:36:46;102653.00;;;8.91;55.78
48527;BME280;34317;51.660;5.824;2023-01-27T14:39:23;102653.03;;;8.89;55.77
48527;BME280;34317;51.660;5.824;2023-01-27T14:50:19;102663.63;;;8.85;55.39
48527;BME280;34317;51.660;5.824;2023-01-27T14:55:33;102665.44;;;8.80;55.49
48527;BME280;34317;51.660;5.824;2023-01-27T15:06:58;102669.09;;;8.63;55.55
48527;BME280;34317;51.660;5.824;2023-01-27T15:10:03;102669.97;;;8.61;55.38
48527;BME280;34317;51.660;5.824;2023-01-27T15:26:21;102686.84;;;8.46;55.54
48527;BME280;34317;51.660;5.824;2023-01-27T15:28:51;102688.59;;;8.45;55.70
48527;BME280;34317;51.660;5.824;2023-01-27T15:36:38;102700.03;;;8.39;55.54